Latest Weather Observations for Ngayawili (Elcho Island)

IDD60801

Issued at 9:21 pm CST Wednesday 12 August 2020 (issued every 10 minutes, with the page automatically refreshed every 10 minutes)

About weather observations | Map of weather stations | Latest weather observations for NT | Other Formats
Station Details ID: 014517 Name: NGAYAWILI Lat: -12.00 Lon: 135.57 Height: 8.1 m
Data from the previous 72 hours. | See also: Recent months at Ngayawili (Elcho Island)
Date/Time
CST
Temp
°C
App
Temp
°C
Dew
Point
°C
Rel
Hum
%
Delta-T
°C
Wind Press
QNH
hPa
Press
MSL
hPa
Rain since
9am
mm
Dir  Spd
km/h
Gust
km/h
Spd
kts
Gust
kts
12/09:00pm - - - - - E 9 11 5 6 1013.1 1013.0 0.0
12/08:30pm - - - - - ENE 7 11 4 6 1013.2 1013.1 0.0
12/08:00pm - - - - - E 9 11 5 6 1012.8 1012.7 0.0
12/07:30pm - - - - - ENE 6 7 3 4 1012.5 1012.4 0.0
12/07:00pm - - - - - NE 7 9 4 5 1012.3 1012.2 0.0
12/06:30pm - - - - - NNE 13 15 7 8 1011.9 1011.8 0.0
12/06:00pm - - - - - NNE 17 20 9 11 1011.8 1011.7 0.0
12/05:30pm - - - - - N 20 22 11 12 1011.5 1011.4 0.0
12/05:00pm - - - - - N 22 26 12 14 1011.4 1011.3 0.0
12/04:30pm - - - - - N 24 28 13 15 1011.3 1011.2 0.0
12/04:00pm - - - - - N 22 26 12 14 1011.3 1011.2 0.0
12/03:30pm - - - - - N 22 24 12 13 1011.4 1011.3 0.0
12/03:00pm - - - - - N 22 24 12 13 1011.7 1011.6 0.0
12/02:30pm - - - - - NNW 17 20 9 11 1012.3 1012.2 0.0
12/02:00pm - - - - - NNW 15 17 8 9 1012.8 1012.7 0.0
12/01:30pm - - - - - NW 13 15 7 8 1013.3 1013.2 0.0
12/01:00pm - - - - - WNW 13 15 7 8 1013.6 1013.5 0.0
12/12:30pm - - - - - W 13 17 7 9 1014.2 1014.1 0.0
12/12:00pm - - - - - WNW 13 15 7 8 1015.0 1014.9 0.0
12/11:30am - - - - - W 11 17 6 9 1015.4 1015.3 0.0
12/11:00am - - - - - WNW 13 19 7 10 1015.9 1015.8 0.0
12/10:30am - - - - - N 20 22 11 12 1016.1 1016.1 0.0
12/10:00am - - - - - N 13 20 7 11 1016.4 1016.4 0.0
12/09:30am - - - - - ESE 7 11 4 6 1016.3 1016.3 0.0
12/09:00am - - - - - E 9 13 5 7 1016.2 1016.2 0.0
12/08:30am - - - - - ESE 9 13 5 7 1016.0 1016.0 0.0
12/08:00am - - - - - SE 11 13 6 7 1015.6 1015.5 0.0
12/07:30am - - - - - ESE 9 13 5 7 1015.3 1015.2 0.0
12/07:00am - - - - - ESE 13 15 7 8 1014.9 1014.8 0.0
12/06:30am - - - - - SE 13 17 7 9 1014.4 1014.3 0.0
12/06:00am - - - - - SE 11 13 6 7 1014.1 1014.0 0.0
12/05:30am - - - - - SE 11 15 6 8 1013.6 1013.5 0.0
12/05:00am - - - - - SE 11 15 6 8 1013.3 1013.2 0.0
12/04:30am - - - - - SE 13 15 7 8 1012.9 1012.8 0.0
12/04:00am - - - - - SE 13 15 7 8 1012.8 1012.7 0.0
12/03:30am - - - - - SE 13 15 7 8 1012.8 1012.7 0.0
12/03:00am - - - - - SE 11 13 6 7 1012.9 1012.8 0.0
12/02:30am - - - - - SE 11 13 6 7 1013.0 1012.9 0.0
12/02:00am - - - - - SE 11 13 6 7 1013.2 1013.1 0.0
12/01:30am - - - - - SE 11 13 6 7 1013.5 1013.4 0.0
12/01:00am - - - - - SE 11 15 6 8 1013.8 1013.7 0.0
12/12:30am - - - - - ESE 9 11 5 6 1014.1 1014.0 0.0
12/12:00am - - - - - ESE 9 11 5 6 1014.3 1014.2 0.0
 
Date/Time
CST
Temp
°C
App
Temp
°C
Dew
Point
°C
Rel
Hum
%
Delta-T
°C
Wind Press
QNH
hPa
Press
MSL
hPa
Rain since
9am
mm
Dir  Spd
km/h
Gust
km/h
Spd
kts
Gust
kts
11/11:30pm - - - - - ESE 9 11 5 6 1014.5 1014.4 0.0
11/11:00pm - - - - - ESE 7 9 4 5 1014.5 1014.4 0.0
11/10:30pm - - - - - CALM 0 0 0 0 1014.7 1014.6 0.0
11/10:00pm - - - - - ESE 7 11 4 6 1014.6 1014.5 0.0
11/09:30pm - - - - - E 7 9 4 5 1014.8 1014.7 0.0
11/09:00pm - - - - - ESE 7 9 4 5 1014.6 1014.5 0.0
11/08:30pm - - - - - E 7 9 4 5 1014.3 1014.2 0.0
11/08:00pm - - - - - NE 11 13 6 7 1014.1 1014.0 0.0
11/07:30pm - - - - - NE 13 17 7 9 1014.0 1013.9 0.0
11/07:00pm - - - - - NNE 20 24 11 13 1013.5 1013.4 0.0
11/06:30pm - - - - - NNE 20 24 11 13 1013.1 1013.0 0.0
11/06:00pm - - - - - NNE 20 22 11 12 1012.8 1012.7 0.0
11/05:30pm - - - - - N 20 26 11 14 1012.6 1012.5 0.0
11/05:00pm - - - - - N 22 26 12 14 1012.5 1012.4 0.0
11/04:30pm - - - - - N 24 28 13 15 1012.4 1012.3 0.0
11/04:00pm - - - - - N 22 26 12 14 1012.2 1012.1 0.0
11/03:30pm - - - - - N 22 26 12 14 1012.3 1012.2 0.0
11/03:00pm - - - - - N 24 28 13 15 1012.6 1012.5 0.0
11/02:30pm - - - - - N 20 24 11 13 1012.9 1012.8 0.0
11/02:00pm - - - - - N 24 26 13 14 1013.3 1013.2 0.0
11/01:30pm - - - - - N 26 30 14 16 1013.6 1013.5 0.0
11/01:00pm - - - - - N 24 26 13 14 1014.0 1013.9 0.0
11/12:30pm - - - - - NNW 15 19 8 10 1014.4 1014.3 0.0
11/12:00pm - - - - - ESE 11 19 6 10 1014.8 1014.7 0.0
11/11:30am - - - - - SE 11 19 6 10 1015.1 1015.0 0.0
11/11:00am - - - - - SE 11 17 6 9 1015.5 1015.4 0.0
11/10:30am - - - - - SSE 17 24 9 13 1015.7 1015.6 0.0
11/10:00am - - - - - SE 17 22 9 12 1015.9 1015.8 0.0
11/09:30am - - - - - SE 11 19 6 10 1016.0 1016.0 0.0
11/09:00am - - - - - SE 13 20 7 11 1015.9 1015.8 0.0
11/08:30am - - - - - SE 15 22 8 12 1015.6 1015.5 0.0
11/08:00am - - - - - SE 13 19 7 10 1015.3 1015.2 0.0
11/07:30am - - - - - ESE 9 15 5 8 1014.9 1014.8 0.0
11/07:00am - - - - - SE 9 15 5 8 1014.6 1014.5 0.0
11/06:30am - - - - - ESE 9 13 5 7 1014.3 1014.2 0.0
11/06:00am - - - - - SE 11 17 6 9 1014.0 1013.9 0.0
11/05:30am - - - - - SE 9 15 5 8 1013.9 1013.8 0.0
11/05:00am - - - - - SE 9 15 5 8 1013.5 1013.4 0.0
11/04:30am - - - - - ESE 11 17 6 9 1013.3 1013.2 0.0
11/04:00am - - - - - SE 11 17 6 9 1013.0 1012.9 0.0
11/03:30am - - - - - SE 11 17 6 9 1013.0 1012.9 0.0
11/03:00am - - - - - SE 11 17 6 9 1013.2 1013.1 0.0
11/02:30am - - - - - SE 13 20 7 11 1013.4 1013.3 0.0
11/02:00am - - - - - SE 9 15 5 8 1013.6 1013.5 0.0
11/01:30am - - - - - SE 13 22 7 12 1013.7 1013.6 0.0
11/01:00am - - - - - SE 15 22 8 12 1013.8 1013.7 0.0
11/12:30am - - - - - SE 15 20 8 11 1014.1 1014.0 0.0
11/12:00am - - - - - SE 15 26 8 14 1014.2 1014.1 0.0
 
Date/Time
CST
Temp
°C
App
Temp
°C
Dew
Point
°C
Rel
Hum
%
Delta-T
°C
Wind Press
QNH
hPa
Press
MSL
hPa
Rain since
9am
mm
Dir  Spd
km/h
Gust
km/h
Spd
kts
Gust
kts
10/11:30pm - - - - - SE 15 22 8 12 1014.5 1014.4 0.0
10/11:00pm - - - - - SE 13 24 7 13 1014.5 1014.4 0.0
10/10:30pm - - - - - SE 13 20 7 11 1014.4 1014.3 0.0
10/10:00pm - - - - - SE 13 19 7 10 1014.5 1014.4 0.0
10/09:30pm - - - - - SE 13 19 7 10 1014.1 1014.0 0.0
10/09:00pm - - - - - ESE 15 26 8 14 1014.2 1014.1 0.0
10/08:30pm - - - - - ESE 13 20 7 11 1014.0 1013.9 0.0
10/08:00pm - - - - - ESE 13 20 7 11 1013.7 1013.6 0.0
10/07:30pm - - - - - ESE 15 24 8 13 1013.2 1013.1 0.0
10/07:00pm - - - - - ESE 17 26 9 14 1012.9 1012.8 0.0
10/06:30pm - - - - - ESE 17 28 9 15 1012.6 1012.5 0.0
10/06:00pm - - - - - ESE 17 24 9 13 1012.3 1012.2 0.0
10/05:30pm - - - - - E 19 30 10 16 1012.1 1012.0 0.0
10/05:00pm - - - - - ESE 17 26 9 14 1011.8 1011.7 0.0
10/04:30pm - - - - - E 22 37 12 20 1011.5 1011.4 0.0
10/04:00pm - - - - - E 19 30 10 16 1011.5 1011.4 0.0
10/03:30pm - - - - - E 19 32 10 17 1011.4 1011.3 0.0
10/03:00pm - - - - - E 19 30 10 16 1011.6 1011.5 0.0
10/02:30pm - - - - - E 19 28 10 15 1011.9 1011.8 0.0
10/02:00pm - - - - - ESE 15 24 8 13 1012.4 1012.3 0.0
10/01:30pm - - - - - ESE 17 30 9 16 1012.7 1012.6 0.0
10/01:00pm - - - - - ESE 17 28 9 15 1013.1 1013.0 0.0
10/12:30pm - - - - - SSE 20 30 11 16 1013.4 1013.3 0.0
10/12:00pm - - - - - SE 22 32 12 17 1013.8 1013.7 0.0
10/11:30am - - - - - SSE 24 35 13 19 1014.2 1014.1 0.0
10/11:00am - - - - - SSE 24 37 13 20 1014.7 1014.6 0.0
10/10:30am - - - - - SE 26 43 14 23 1014.9 1014.8 0.0
10/10:00am - - - - - SE 24 39 13 21 1014.9 1014.8 0.0
10/09:30am - - - - - SE 22 37 12 20 1015.0 1014.9 0.0
10/09:00am - - - - - SE 24 44 13 24 1014.8 1014.7 0.0
10/08:30am - - - - - SE 24 39 13 21 1014.9 1014.8 0.0
10/08:00am - - - - - SE 19 30 10 16 1014.7 1014.6 0.0
10/07:30am - - - - - SE 15 24 8 13 1014.6 1014.5 0.0
10/07:00am - - - - - SE 15 22 8 12 1014.2 1014.1 0.0
10/06:30am - - - - - SE 17 26 9 14 1013.9 1013.8 0.0
10/06:00am - - - - - SE 17 24 9 13 1013.6 1013.5 0.0
10/05:30am - - - - - SE 19 30 10 16 1013.4 1013.3 0.0
10/05:00am - - - - - SE 19 28 10 15 1013.3 1013.2 0.0
10/04:30am - - - - - SE 19 32 10 17 1013.2 1013.1 0.0
10/04:00am - - - - - SE 17 24 9 13 1013.3 1013.2 0.0
10/03:30am - - - - - SE 15 20 8 11 1013.3 1013.2 0.0
10/03:00am - - - - - SE 15 20 8 11 1013.4 1013.3 0.0
10/02:30am - - - - - SE 13 22 7 12 1013.5 1013.4 0.0
10/02:00am - - - - - ESE 13 20 7 11 1013.6 1013.5 0.0
10/01:30am - - - - - ESE 13 19 7 10 1013.7 1013.6 0.0
10/01:00am - - - - - ESE 15 20 8 11 1013.9 1013.8 0.0
10/12:30am - - - - - ESE 15 24 8 13 1014.0 1013.9 0.0
10/12:00am - - - - - ESE 13 20 7 11 1014.3 1014.2 0.0
 
Date/Time
CST
Temp
°C
App
Temp
°C
Dew
Point
°C
Rel
Hum
%
Delta-T
°C
Wind Press
QNH
hPa
Press
MSL
hPa
Rain since
9am
mm
Dir  Spd
km/h
Gust
km/h
Spd
kts
Gust
kts
09/11:30pm - - - - - ESE 15 26 8 14 1014.4 1014.3 0.0
09/11:00pm - - - - - SE 19 30 10 16 1014.4 1014.3 0.0
09/10:30pm - - - - - ESE 17 26 9 14 1014.5 1014.4 0.0
09/10:00pm - - - - - ESE 17 28 9 15 1014.2 1014.1 0.0
09/09:30pm - - - - - ESE 17 28 9 15 1014.0 1013.9 0.0

Other formats

Comma delimited format used in spreadsheet applications
http://www.bom.gov.au/fwo/IDD60801/IDD60801.95146.axf

JavaScript Object Notation format (JSON) in row-major order
http://www.bom.gov.au/fwo/IDD60801/IDD60801.95146.json

Data quality

Most of these data are generated automatically and are frequently updated. Quality checks on data are not normally performed. It is possible for incorrect values to appear. Refer to information at About Latest Weather Observations and please check the disclaimer before using these data.